sensor_id;sensor_type;location;lat;lon;timestamp;temperature;humidity
62916;DHT22;49010;51.230;-2.306;2022-12-07T00:01:30;4.60;99.90
62916;DHT22;49010;51.230;-2.306;2022-12-07T00:05:12;4.40;99.90
62916;DHT22;49010;51.230;-2.306;2022-12-07T00:08:53;4.40;99.90
62916;DHT22;49010;51.230;-2.306;2022-12-07T00:12:35;4.30;99.90
62916;DHT22;49010;51.230;-2.306;2022-12-07T00:16:19;4.20;99.90
62916;DHT22;49010;51.230;-2.306;2022-12-07T00:20:01;4.10;99.90
62916;DHT22;49010;51.230;-2.306;2022-12-07T00:23:45;4.10;99.90
62916;DHT22;49010;51.230;-2.306;2022-12-07T00:27:27;4.00;99.90
62916;DHT22;49010;51.230;-2.306;2022-12-07T00:31:11;3.90;99.90
62916;DHT22;49010;51.230;-2.306;2022-12-07T00:34:53;3.90;99.90
62916;DHT22;49010;51.230;-2.306;2022-12-07T00:38:36;3.80;99.90
62916;DHT22;49010;51.230;-2.306;2022-12-07T00:42:18;3.80;99.90
62916;DHT22;49010;51.230;-2.306;2022-12-07T00:46:00;3.70;99.90
62916;DHT22;49010;51.230;-2.306;2022-12-07T00:49:42;3.60;99.90
62916;DHT22;49010;51.230;-2.306;2022-12-07T00:53:24;3.60;99.90
62916;DHT22;49010;51.230;-2.306;2022-12-07T00:57:09;3.50;99.90
62916;DHT22;49010;51.230;-2.306;2022-12-07T01:00:51;3.50;99.90
62916;DHT22;49010;51.230;-2.306;2022-12-07T01:04:34;3.40;99.90
62916;DHT22;49010;51.230;-2.306;2022-12-07T01:08:16;3.40;99.90
62916;DHT22;49010;51.230;-2.306;2022-12-07T01:11:58;3.30;99.90
62916;DHT22;49010;51.230;-2.306;2022-12-07T01:15:41;3.30;99.90
62916;DHT22;49010;51.230;-2.306;2022-12-07T01:19:23;3.20;99.90
62916;DHT22;49010;51.230;-2.306;2022-12-07T01:23:05;3.10;99.90
62916;DHT22;49010;51.230;-2.306;2022-12-07T01:26:49;3.10;99.90
62916;DHT22;49010;51.230;-2.306;2022-12-07T01:30:31;3.00;99.90
62916;DHT22;49010;51.230;-2.306;2022-12-07T01:34:13;3.00;99.90
62916;DHT22;49010;51.230;-2.306;2022-12-07T01:37:55;2.90;99.90
62916;DHT22;49010;51.230;-2.306;2022-12-07T01:41:39;2.90;99.90
62916;DHT22;49010;51.230;-2.306;2022-12-07T01:45:38;2.80;99.90
62916;DHT22;49010;51.230;-2.306;2022-12-07T01:49:44;2.70;99.90
62916;DHT22;49010;51.230;-2.306;2022-12-07T01:53:28;2.70;99.90
62916;DHT22;49010;51.230;-2.306;2022-12-07T01:57:12;2.70;99.90
62916;DHT22;49010;51.230;-2.306;2022-12-07T02:00:56;2.60;99.90
62916;DHT22;49010;51.230;-2.306;2022-12-07T02:04:38;2.60;99.90
62916;DHT22;49010;51.230;-2.306;2022-12-07T02:08:20;2.50;99.90
62916;DHT22;49010;51.230;-2.306;2022-12-07T02:12:02;2.50;99.90
62916;DHT22;49010;51.230;-2.306;2022-12-07T02:20:02;2.50;99.90
62916;DHT22;49010;51.230;-2.306;2022-12-07T02:24:27;2.40;99.90
62916;DHT22;49010;51.230;-2.306;2022-12-07T02:32:18;2.30;99.90
62916;DHT22;49010;51.230;-2.306;2022-12-07T02:36:05;2.30;99.90
62916;DHT22;49010;51.230;-2.306;2022-12-07T02:39:55;2.30;99.90
62916;DHT22;49010;51.230;-2.306;2022-12-07T02:43:53;2.30;99.90
62916;DHT22;49010;51.230;-2.306;2022-12-07T02:47:36;2.30;99.90
62916;DHT22;49010;51.230;-2.306;2022-12-07T02:51:18;2.20;99.90
62916;DHT22;49010;51.230;-2.306;2022-12-07T02:55:01;2.30;99.90
62916;DHT22;49010;51.230;-2.306;2022-12-07T03:02:54;2.20;99.90
62916;DHT22;49010;51.230;-2.306;2022-12-07T03:06:44;2.10;99.90
62916;DHT22;49010;51.230;-2.306;2022-12-07T03:11:09;2.10;99.90
62916;DHT22;49010;51.230;-2.306;2022-12-07T03:14:58;2.00;99.90
62916;DHT22;49010;51.230;-2.306;2022-12-07T03:18:52;2.00;99.90
62916;DHT22;49010;51.230;-2.306;2022-12-07T03:22:38;2.00;99.90
62916;DHT22;49010;51.230;-2.306;2022-12-07T03:26:24;2.00;99.90
62916;DHT22;49010;51.230;-2.306;2022-12-07T03:30:13;2.10;99.90
62916;DHT22;49010;51.230;-2.306;2022-12-07T03:34:04;2.20;99.90
62916;DHT22;49010;51.230;-2.306;2022-12-07T03:37:52;2.30;99.90
62916;DHT22;49010;51.230;-2.306;2022-12-07T03:41:36;2.40;99.90
62916;DHT22;49010;51.230;-2.306;2022-12-07T03:45:42;2.30;99.90
62916;DHT22;49010;51.230;-2.306;2022-12-07T03:49:44;2.30;99.90
62916;DHT22;49010;51.230;-2.306;2022-12-07T03:53:36;2.30;99.90
62916;DHT22;49010;51.230;-2.306;2022-12-07T03:57:20;2.10;99.90
62916;DHT22;49010;51.230;-2.306;2022-12-07T04:01:04;2.10;99.90
62916;DHT22;49010;51.230;-2.306;2022-12-07T04:04:45;2.00;99.90
62916;DHT22;49010;51.230;-2.306;2022-12-07T04:08:27;1.90;99.90
62916;DHT22;49010;51.230;-2.306;2022-12-07T04:12:09;1.90;99.90
62916;DHT22;49010;51.230;-2.306;2022-12-07T04:15:51;1.80;99.90
62916;DHT22;49010;51.230;-2.306;2022-12-07T04:19:33;1.80;99.90
62916;DHT22;49010;51.230;-2.306;2022-12-07T04:23:15;1.70;99.90
62916;DHT22;49010;51.230;-2.306;2022-12-07T04:26:57;1.70;99.90
62916;DHT22;49010;51.230;-2.306;2022-12-07T04:30:39;1.60;99.90
62916;DHT22;49010;51.230;-2.306;2022-12-07T04:34:21;1.50;99.90
62916;DHT22;49010;51.230;-2.306;2022-12-07T04:38:03;1.50;99.90
62916;DHT22;49010;51.230;-2.306;2022-12-07T04:41:44;1.40;99.90
62916;DHT22;49010;51.230;-2.306;2022-12-07T04:45:26;1.40;99.90
62916;DHT22;49010;51.230;-2.306;2022-12-07T04:49:08;1.30;99.90
62916;DHT22;49010;51.230;-2.306;2022-12-07T04:52:50;1.30;99.90
62916;DHT22;49010;51.230;-2.306;2022-12-07T04:56:33;1.20;99.90
62916;DHT22;49010;51.230;-2.306;2022-12-07T05:00:16;1.20;99.90
62916;DHT22;49010;51.230;-2.306;2022-12-07T05:03:58;1.20;99.90
62916;DHT22;49010;51.230;-2.306;2022-12-07T05:07:40;1.20;99.90
62916;DHT22;49010;51.230;-2.306;2022-12-07T05:11:22;1.10;99.90
62916;DHT22;49010;51.230;-2.306;2022-12-07T05:15:19;1.10;99.90
62916;DHT22;49010;51.230;-2.306;2022-12-07T05:19:01;1.10;99.90
62916;DHT22;49010;51.230;-2.306;2022-12-07T05:22:43;1.00;99.90
62916;DHT22;49010;51.230;-2.306;2022-12-07T05:26:24;1.00;99.90
62916;DHT22;49010;51.230;-2.306;2022-12-07T05:30:07;1.00;99.90
62916;DHT22;49010;51.230;-2.306;2022-12-07T05:33:49;0.90;99.90
62916;DHT22;49010;51.230;-2.306;2022-12-07T05:37:30;0.90;99.90
62916;DHT22;49010;51.230;-2.306;2022-12-07T05:41:15;0.90;99.90
62916;DHT22;49010;51.230;-2.306;2022-12-07T05:45:15;0.80;99.90
62916;DHT22;49010;51.230;-2.306;2022-12-07T05:48:57;0.80;99.90
62916;DHT22;49010;51.230;-2.306;2022-12-07T05:52:39;0.80;99.90
62916;DHT22;49010;51.230;-2.306;2022-12-07T05:56:21;0.70;99.90
62916;DHT22;49010;51.230;-2.306;2022-12-07T06:00:04;0.70;99.90
62916;DHT22;49010;51.230;-2.306;2022-12-07T06:03:46;0.70;99.90
62916;DHT22;49010;51.230;-2.306;2022-12-07T06:07:28;0.70;99.90
62916;DHT22;49010;51.230;-2.306;2022-12-07T06:11:10;0.60;99.90
62916;DHT22;49010;51.230;-2.306;2022-12-07T06:15:10;0.60;99.90
62916;DHT22;49010;51.230;-2.306;2022-12-07T06:18:54;0.60;99.90
62916;DHT22;49010;51.230;-2.306;2022-12-07T06:22:36;0.50;99.90
62916;DHT22;49010;51.230;-2.306;2022-12-07T06:26:18;0.50;99.90
62916;DHT22;49010;51.230;-2.306;2022-12-07T06:29:59;0.50;99.90
62916;DHT22;49010;51.230;-2.306;2022-12-07T06:33:47;0.50;99.90
62916;DHT22;49010;51.230;-2.306;2022-12-07T06:37:28;0.50;99.90
62916;DHT22;49010;51.230;-2.306;2022-12-07T06:41:10;0.40;99.90
62916;DHT22;49010;51.230;-2.306;2022-12-07T06:44:52;0.40;99.90
62916;DHT22;49010;51.230;-2.306;2022-12-07T06:48:34;0.40;99.90
62916;DHT22;49010;51.230;-2.306;2022-12-07T06:52:15;0.30;99.90
62916;DHT22;49010;51.230;-2.306;2022-12-07T06:55:57;0.20;99.90
62916;DHT22;49010;51.230;-2.306;2022-12-07T06:59:39;0.20;99.90
62916;DHT22;49010;51.230;-2.306;2022-12-07T07:03:21;0.10;99.90
62916;DHT22;49010;51.230;-2.306;2022-12-07T07:07:02;0.10;99.90
62916;DHT22;49010;51.230;-2.306;2022-12-07T07:10:44;0.10;99.90
62916;DHT22;49010;51.230;-2.306;2022-12-07T07:14:26;0.10;99.90
62916;DHT22;49010;51.230;-2.306;2022-12-07T07:18:08;0.00;99.90
62916;DHT22;49010;51.230;-2.306;2022-12-07T07:21:50;0.00;99.90
62916;DHT22;49010;51.230;-2.306;2022-12-07T07:25:32;0.00;99.90
62916;DHT22;49010;51.230;-2.306;2022-12-07T07:29:13;0.00;99.90
62916;DHT22;49010;51.230;-2.306;2022-12-07T07:33:02;0.00;99.90
62916;DHT22;49010;51.230;-2.306;2022-12-07T07:36:44;0.00;99.90
62916;DHT22;49010;51.230;-2.306;2022-12-07T07:40:27;0.00;99.90
62916;DHT22;49010;51.230;-2.306;2022-12-07T07:44:10;0.00;99.90
62916;DHT22;49010;51.230;-2.306;2022-12-07T07:47:52;-0.10;99.90
62916;DHT22;49010;51.230;-2.306;2022-12-07T07:51:34;-0.10;99.90
62916;DHT22;49010;51.230;-2.306;2022-12-07T07:55:17;-0.10;99.90
62916;DHT22;49010;51.230;-2.306;2022-12-07T07:58:59;-0.10;99.90
62916;DHT22;49010;51.230;-2.306;2022-12-07T08:02:41;-0.10;99.90
62916;DHT22;49010;51.230;-2.306;2022-12-07T08:06:25;-0.20;99.90
62916;DHT22;49010;51.230;-2.306;2022-12-07T08:10:13;-0.20;99.90
62916;DHT22;49010;51.230;-2.306;2022-12-07T08:13:55;-0.10;99.90
62916;DHT22;49010;51.230;-2.306;2022-12-07T08:17:36;-0.20;99.90
62916;DHT22;49010;51.230;-2.306;2022-12-07T08:21:18;-0.10;99.90
62916;DHT22;49010;51.230;-2.306;2022-12-07T08:25:00;-0.20;99.90
62916;DHT22;49010;51.230;-2.306;2022-12-07T08:28:42;-0.20;99.90
62916;DHT22;49010;51.230;-2.306;2022-12-07T08:32:24;-0.10;99.90
62916;DHT22;49010;51.230;-2.306;2022-12-07T08:36:08;-0.20;99.90
62916;DHT22;49010;51.230;-2.306;2022-12-07T08:39:50;-0.20;99.90
62916;DHT22;49010;51.230;-2.306;2022-12-07T08:43:33;-0.10;99.90
62916;DHT22;49010;51.230;-2.306;2022-12-07T08:47:15;-0.10;99.90
62916;DHT22;49010;51.230;-2.306;2022-12-07T08:50:57;-0.10;99.90
62916;DHT22;49010;51.230;-2.306;2022-12-07T08:54:40;-0.10;99.90
62916;DHT22;49010;51.230;-2.306;2022-12-07T08:58:22;-0.10;99.90
62916;DHT22;49010;51.230;-2.306;2022-12-07T09:02:05;0.00;99.90
62916;DHT22;49010;51.230;-2.306;2022-12-07T09:05:47;-0.10;99.90
62916;DHT22;49010;51.230;-2.306;2022-12-07T09:09:29;0.00;99.90
62916;DHT22;49010;51.230;-2.306;2022-12-07T09:13:11;0.00;99.90
62916;DHT22;49010;51.230;-2.306;2022-12-07T09:16:53;0.00;99.90
62916;DHT22;49010;51.230;-2.306;2022-12-07T09:20:35;0.00;99.90
62916;DHT22;49010;51.230;-2.306;2022-12-07T09:24:17;0.00;99.90
62916;DHT22;49010;51.230;-2.306;2022-12-07T09:27:59;0.10;99.90
62916;DHT22;49010;51.230;-2.306;2022-12-07T09:31:40;0.20;99.90
62916;DHT22;49010;51.230;-2.306;2022-12-07T09:35:23;0.30;99.90
62916;DHT22;49010;51.230;-2.306;2022-12-07T09:39:05;0.60;99.90
62916;DHT22;49010;51.230;-2.306;2022-12-07T09:42:49;0.90;99.90
62916;DHT22;49010;51.230;-2.306;2022-12-07T09:46:37;1.40;99.90
62916;DHT22;49010;51.230;-2.306;2022-12-07T09:50:21;1.90;99.90
62916;DHT22;49010;51.230;-2.306;2022-12-07T09:54:04;2.30;99.90
62916;DHT22;49010;51.230;-2.306;2022-12-07T09:57:46;2.80;99.90
62916;DHT22;49010;51.230;-2.306;2022-12-07T10:01:30;3.20;99.90
62916;DHT22;49010;51.230;-2.306;2022-12-07T10:05:46;3.50;99.90
62916;DHT22;49010;51.230;-2.306;2022-12-07T10:09:29;3.80;99.90
62916;DHT22;49010;51.230;-2.306;2022-12-07T10:13:40;4.40;99.90
62916;DHT22;49010;51.230;-2.306;2022-12-07T10:17:36;5.10;99.90
62916;DHT22;49010;51.230;-2.306;2022-12-07T10:21:20;5.90;99.90
62916;DHT22;49010;51.230;-2.306;2022-12-07T10:25:09;6.80;99.90
62916;DHT22;49010;51.230;-2.306;2022-12-07T10:29:00;7.80;99.90
62916;DHT22;49010;51.230;-2.306;2022-12-07T10:32:43;8.60;99.90
62916;DHT22;49010;51.230;-2.306;2022-12-07T10:36:37;9.40;98.90
62916;DHT22;49010;51.230;-2.306;2022-12-07T10:40:33;10.10;96.80
62916;DHT22;49010;51.230;-2.306;2022-12-07T10:44:22;10.80;93.60
62916;DHT22;49010;51.230;-2.306;2022-12-07T10:48:20;11.20;87.50
62916;DHT22;49010;51.230;-2.306;2022-12-07T10:55:55;10.50;81.60
62916;DHT22;49010;51.230;-2.306;2022-12-07T10:59:53;10.00;83.70
62916;DHT22;49010;51.230;-2.306;2022-12-07T11:03:48;9.60;88.30
62916;DHT22;49010;51.230;-2.306;2022-12-07T11:08:11;9.00;87.70
62916;DHT22;49010;51.230;-2.306;2022-12-07T11:24:34;7.30;92.90
62916;DHT22;49010;51.230;-2.306;2022-12-07T11:36:40;6.70;95.50
62916;DHT22;49010;51.230;-2.306;2022-12-07T11:40:36;6.40;96.20
62916;DHT22;49010;51.230;-2.306;2022-12-07T11:44:56;6.30;96.30
62916;DHT22;49010;51.230;-2.306;2022-12-07T11:52:45;6.00;97.40
62916;DHT22;49010;51.230;-2.306;2022-12-07T11:56:30;5.90;97.70
62916;DHT22;49010;51.230;-2.306;2022-12-07T12:00:18;5.80;98.30
62916;DHT22;49010;51.230;-2.306;2022-12-07T12:17:22;5.80;99.90
62916;DHT22;49010;51.230;-2.306;2022-12-07T12:21:12;6.20;99.90
62916;DHT22;49010;51.230;-2.306;2022-12-07T12:25:04;6.50;99.90
62916;DHT22;49010;51.230;-2.306;2022-12-07T12:29:07;6.60;99.90
62916;DHT22;49010;51.230;-2.306;2022-12-07T12:33:27;6.90;99.90
62916;DHT22;49010;51.230;-2.306;2022-12-07T12:45:41;7.30;99.70
62916;DHT22;49010;51.230;-2.306;2022-12-07T12:53:25;7.50;97.00
62916;DHT22;49010;51.230;-2.306;2022-12-07T12:57:27;7.60;98.20
62916;DHT22;49010;51.230;-2.306;2022-12-07T13:01:36;7.60;98.00
62916;DHT22;49010;51.230;-2.306;2022-12-07T13:05:23;7.60;97.90
62916;DHT22;49010;51.230;-2.306;2022-12-07T13:09:21;7.60;96.10
62916;DHT22;49010;51.230;-2.306;2022-12-07T13:17:01;7.40;96.20
62916;DHT22;49010;51.230;-2.306;2022-12-07T13:20:48;7.40;95.40
62916;DHT22;49010;51.230;-2.306;2022-12-07T13:24:31;7.30;95.70
62916;DHT22;49010;51.230;-2.306;2022-12-07T13:28:19;7.30;96.00
62916;DHT22;49010;51.230;-2.306;2022-12-07T13:32:02;7.20;96.20
62916;DHT22;49010;51.230;-2.306;2022-12-07T13:35:43;7.10;95.40
62916;DHT22;49010;51.230;-2.306;2022-12-07T13:39:27;7.10;95.40
62916;DHT22;49010;51.230;-2.306;2022-12-07T13:43:14;7.00;95.90
62916;DHT22;49010;51.230;-2.306;2022-12-07T13:47:12;7.00;96.20
62916;DHT22;49010;51.230;-2.306;2022-12-07T13:50:58;7.00;96.90
62916;DHT22;49010;51.230;-2.306;2022-12-07T13:55:29;7.10;95.70
62916;DHT22;49010;51.230;-2.306;2022-12-07T13:58:46;7.00;95.90
62916;DHT22;49010;51.230;-2.306;2022-12-07T14:02:33;7.10;95.80
62916;DHT22;49010;51.230;-2.306;2022-12-07T14:06:27;7.10;95.90
62916;DHT22;49010;51.230;-2.306;2022-12-07T14:10:25;7.00;96.40
62916;DHT22;49010;51.230;-2.306;2022-12-07T14:14:16;7.10;97.10
62916;DHT22;49010;51.230;-2.306;2022-12-07T14:18:01;7.00;96.40
62916;DHT22;49010;51.230;-2.306;2022-12-07T14:21:45;7.00;95.50
62916;DHT22;49010;51.230;-2.306;2022-12-07T14:25:28;6.90;95.90
62916;DHT22;49010;51.230;-2.306;2022-12-07T14:29:31;6.80;96.00
62916;DHT22;49010;51.230;-2.306;2022-12-07T14:33:14;6.80;97.30
62916;DHT22;49010;51.230;-2.306;2022-12-07T14:36:55;6.70;96.10
62916;DHT22;49010;51.230;-2.306;2022-12-07T14:40:38;6.80;95.90
62916;DHT22;49010;51.230;-2.306;2022-12-07T14:44:22;6.70;95.80
62916;DHT22;49010;51.230;-2.306;2022-12-07T14:48:15;6.70;95.90
62916;DHT22;49010;51.230;-2.306;2022-12-07T14:52:21;6.60;96.50
62916;DHT22;49010;51.230;-2.306;2022-12-07T14:56:25;6.60;96.80
62916;DHT22;49010;51.230;-2.306;2022-12-07T15:00:08;6.50;96.30
62916;DHT22;49010;51.230;-2.306;2022-12-07T15:03:50;6.50;96.30
62916;DHT22;49010;51.230;-2.306;2022-12-07T15:07:32;6.40;96.20
62916;DHT22;49010;51.230;-2.306;2022-12-07T15:11:16;6.30;96.50
62916;DHT22;49010;51.230;-2.306;2022-12-07T15:14:58;6.30;96.60
62916;DHT22;49010;51.230;-2.306;2022-12-07T15:18:39;6.20;96.90
62916;DHT22;49010;51.230;-2.306;2022-12-07T15:22:39;6.30;97.30
62916;DHT22;49010;51.230;-2.306;2022-12-07T15:26:20;6.10;97.50
62916;DHT22;49010;51.230;-2.306;2022-12-07T15:30:03;6.10;97.60
62916;DHT22;49010;51.230;-2.306;2022-12-07T15:33:45;6.10;97.70
62916;DHT22;49010;51.230;-2.306;2022-12-07T15:37:27;6.10;98.00
62916;DHT22;49010;51.230;-2.306;2022-12-07T15:41:08;6.00;97.90
62916;DHT22;49010;51.230;-2.306;2022-12-07T15:44:50;5.90;98.10
62916;DHT22;49010;51.230;-2.306;2022-12-07T15:48:48;5.90;98.30
62916;DHT22;49010;51.230;-2.306;2022-12-07T15:52:30;5.90;98.40
62916;DHT22;49010;51.230;-2.306;2022-12-07T15:56:12;5.80;98.30
62916;DHT22;49010;51.230;-2.306;2022-12-07T15:59:54;5.80;98.40
62916;DHT22;49010;51.230;-2.306;2022-12-07T16:03:35;5.70;98.50
62916;DHT22;49010;51.230;-2.306;2022-12-07T16:07:17;5.70;98.50
62916;DHT22;49010;51.230;-2.306;2022-12-07T16:11:00;5.70;98.60
62916;DHT22;49010;51.230;-2.306;2022-12-07T16:14:45;5.60;98.70
62916;DHT22;49010;51.230;-2.306;2022-12-07T16:18:27;5.60;98.80
62916;DHT22;49010;51.230;-2.306;2022-12-07T16:22:09;5.50;98.90
62916;DHT22;49010;51.230;-2.306;2022-12-07T16:25:50;5.50;99.00
62916;DHT22;49010;51.230;-2.306;2022-12-07T16:29:32;5.40;99.10
62916;DHT22;49010;51.230;-2.306;2022-12-07T16:33:14;5.30;99.20
62916;DHT22;49010;51.230;-2.306;2022-12-07T16:36:56;5.30;99.30
62916;DHT22;49010;51.230;-2.306;2022-12-07T16:40:47;5.20;99.50
62916;DHT22;49010;51.230;-2.306;2022-12-07T16:44:29;5.10;99.90
62916;DHT22;49010;51.230;-2.306;2022-12-07T16:48:13;5.00;99.90
62916;DHT22;49010;51.230;-2.306;2022-12-07T16:51:54;4.90;99.90
62916;DHT22;49010;51.230;-2.306;2022-12-07T16:55:56;4.80;99.90
62916;DHT22;49010;51.230;-2.306;2022-12-07T16:59:38;4.70;99.90
62916;DHT22;49010;51.230;-2.306;2022-12-07T17:03:20;4.60;99.90
62916;DHT22;49010;51.230;-2.306;2022-12-07T17:07:02;4.60;99.90
62916;DHT22;49010;51.230;-2.306;2022-12-07T17:10:44;4.40;99.90
62916;DHT22;49010;51.230;-2.306;2022-12-07T17:14:26;4.30;99.90
62916;DHT22;49010;51.230;-2.306;2022-12-07T17:18:28;4.20;99.90
62916;DHT22;49010;51.230;-2.306;2022-12-07T17:22:10;4.20;99.90
62916;DHT22;49010;51.230;-2.306;2022-12-07T17:25:54;4.10;99.90
62916;DHT22;49010;51.230;-2.306;2022-12-07T17:29:37;4.00;99.90
62916;DHT22;49010;51.230;-2.306;2022-12-07T17:33:19;3.90;99.90
62916;DHT22;49010;51.230;-2.306;2022-12-07T17:37:01;3.90;99.90
62916;DHT22;49010;51.230;-2.306;2022-12-07T17:40:43;3.80;99.90
62916;DHT22;49010;51.230;-2.306;2022-12-07T17:44:27;3.70;99.90
62916;DHT22;49010;51.230;-2.306;2022-12-07T17:48:08;3.60;99.90
62916;DHT22;49010;51.230;-2.306;2022-12-07T17:51:50;3.50;99.90
62916;DHT22;49010;51.230;-2.306;2022-12-07T17:55:54;3.40;99.90
62916;DHT22;49010;51.230;-2.306;2022-12-07T17:59:56;3.30;99.90
62916;DHT22;49010;51.230;-2.306;2022-12-07T18:03:38;3.30;99.90
62916;DHT22;49010;51.230;-2.306;2022-12-07T18:07:20;3.10;99.90
62916;DHT22;49010;51.230;-2.306;2022-12-07T18:11:02;3.10;99.90
62916;DHT22;49010;51.230;-2.306;2022-12-07T18:14:45;3.00;99.90
62916;DHT22;49010;51.230;-2.306;2022-12-07T18:18:27;3.00;99.90
62916;DHT22;49010;51.230;-2.306;2022-12-07T18:22:09;2.90;99.90
62916;DHT22;49010;51.230;-2.306;2022-12-07T18:25:51;2.80;99.90
62916;DHT22;49010;51.230;-2.306;2022-12-07T18:29:33;2.70;99.90
62916;DHT22;49010;51.230;-2.306;2022-12-07T18:33:18;2.70;99.90
62916;DHT22;49010;51.230;-2.306;2022-12-07T18:37:00;2.60;99.90
62916;DHT22;49010;51.230;-2.306;2022-12-07T18:40:43;2.60;99.90
62916;DHT22;49010;51.230;-2.306;2022-12-07T18:44:24;2.50;99.90
62916;DHT22;49010;51.230;-2.306;2022-12-07T18:48:07;2.40;99.90
62916;DHT22;49010;51.230;-2.306;2022-12-07T18:51:49;2.40;99.90
62916;DHT22;49010;51.230;-2.306;2022-12-07T18:55:31;2.30;99.90
62916;DHT22;49010;51.230;-2.306;2022-12-07T18:59:13;2.20;99.90
62916;DHT22;49010;51.230;-2.306;2022-12-07T19:03:14;2.20;99.90
62916;DHT22;49010;51.230;-2.306;2022-12-07T19:06:55;2.10;99.90
62916;DHT22;49010;51.230;-2.306;2022-12-07T19:10:37;2.10;99.90
62916;DHT22;49010;51.230;-2.306;2022-12-07T19:14:28;2.00;99.90
62916;DHT22;49010;51.230;-2.306;2022-12-07T19:18:10;2.00;99.90
62916;DHT22;49010;51.230;-2.306;2022-12-07T19:21:51;1.90;99.90
62916;DHT22;49010;51.230;-2.306;2022-12-07T19:25:33;1.80;99.90
62916;DHT22;49010;51.230;-2.306;2022-12-07T19:29:15;1.80;99.90
62916;DHT22;49010;51.230;-2.306;2022-12-07T19:32:57;1.80;99.90
62916;DHT22;49010;51.230;-2.306;2022-12-07T19:36:38;1.70;99.90
62916;DHT22;49010;51.230;-2.306;2022-12-07T19:40:20;1.70;99.90
62916;DHT22;49010;51.230;-2.306;2022-12-07T19:47:46;1.60;99.90
62916;DHT22;49010;51.230;-2.306;2022-12-07T19:51:29;1.50;99.90
62916;DHT22;49010;51.230;-2.306;2022-12-07T19:55:11;1.50;99.90
62916;DHT22;49010;51.230;-2.306;2022-12-07T19:58:53;1.50;99.90
62916;DHT22;49010;51.230;-2.306;2022-12-07T20:02:38;1.40;99.90
62916;DHT22;49010;51.230;-2.306;2022-12-07T20:06:23;1.40;99.90
62916;DHT22;49010;51.230;-2.306;2022-12-07T20:10:06;1.30;99.90
62916;DHT22;49010;51.230;-2.306;2022-12-07T20:13:48;1.20;99.90
62916;DHT22;49010;51.230;-2.306;2022-12-07T20:17:30;1.20;99.90
62916;DHT22;49010;51.230;-2.306;2022-12-07T20:21:12;1.20;99.90
62916;DHT22;49010;51.230;-2.306;2022-12-07T20:24:54;1.20;99.90
62916;DHT22;49010;51.230;-2.306;2022-12-07T20:28:36;1.10;99.90
62916;DHT22;49010;51.230;-2.306;2022-12-07T20:32:18;1.10;99.90
62916;DHT22;49010;51.230;-2.306;2022-12-07T20:36:01;1.00;99.90
62916;DHT22;49010;51.230;-2.306;2022-12-07T20:39:43;1.00;99.90
62916;DHT22;49010;51.230;-2.306;2022-12-07T20:43:25;0.90;99.90
62916;DHT22;49010;51.230;-2.306;2022-12-07T20:47:07;0.90;99.90
62916;DHT22;49010;51.230;-2.306;2022-12-07T20:50:52;0.90;99.90
62916;DHT22;49010;51.230;-2.306;2022-12-07T20:54:35;0.80;99.90
62916;DHT22;49010;51.230;-2.306;2022-12-07T20:58:20;0.80;99.90
62916;DHT22;49010;51.230;-2.306;2022-12-07T21:02:02;0.80;99.90
62916;DHT22;49010;51.230;-2.306;2022-12-07T21:05:44;0.80;99.90
62916;DHT22;49010;51.230;-2.306;2022-12-07T21:09:31;0.80;99.90
62916;DHT22;49010;51.230;-2.306;2022-12-07T21:13:13;0.70;99.90
62916;DHT22;49010;51.230;-2.306;2022-12-07T21:16:55;0.70;99.90
62916;DHT22;49010;51.230;-2.306;2022-12-07T21:20:39;0.60;99.90
62916;DHT22;49010;51.230;-2.306;2022-12-07T21:24:21;0.60;99.90
62916;DHT22;49010;51.230;-2.306;2022-12-07T21:28:03;0.50;99.90
62916;DHT22;49010;51.230;-2.306;2022-12-07T21:31:45;0.50;99.90
62916;DHT22;49010;51.230;-2.306;2022-12-07T21:35:26;0.50;99.90
62916;DHT22;49010;51.230;-2.306;2022-12-07T21:39:09;0.50;99.90
62916;DHT22;49010;51.230;-2.306;2022-12-07T21:42:53;0.40;99.90
62916;DHT22;49010;51.230;-2.306;2022-12-07T21:46:36;0.40;99.90
62916;DHT22;49010;51.230;-2.306;2022-12-07T21:50:19;0.30;99.90
62916;DHT22;49010;51.230;-2.306;2022-12-07T21:54:02;0.30;99.90
62916;DHT22;49010;51.230;-2.306;2022-12-07T21:57:44;0.20;99.90
62916;DHT22;49010;51.230;-2.306;2022-12-07T22:01:28;0.20;99.90
62916;DHT22;49010;51.230;-2.306;2022-12-07T22:05:11;0.10;99.90
62916;DHT22;49010;51.230;-2.306;2022-12-07T22:08:53;0.10;99.90
62916;DHT22;49010;51.230;-2.306;2022-12-07T22:12:36;0.00;99.90
62916;DHT22;49010;51.230;-2.306;2022-12-07T22:16:18;0.00;99.90
62916;DHT22;49010;51.230;-2.306;2022-12-07T22:20:00;-0.10;99.90
62916;DHT22;49010;51.230;-2.306;2022-12-07T22:23:42;-0.10;99.90
62916;DHT22;49010;51.230;-2.306;2022-12-07T22:27:24;-0.10;99.90
62916;DHT22;49010;51.230;-2.306;2022-12-07T22:31:08;-0.10;99.90
62916;DHT22;49010;51.230;-2.306;2022-12-07T22:34:50;-0.10;99.90
62916;DHT22;49010;51.230;-2.306;2022-12-07T22:38:31;-0.10;99.90
62916;DHT22;49010;51.230;-2.306;2022-12-07T22:42:13;-0.10;99.90
62916;DHT22;49010;51.230;-2.306;2022-12-07T22:45:57;-0.20;99.90
62916;DHT22;49010;51.230;-2.306;2022-12-07T22:49:38;-0.20;99.90
62916;DHT22;49010;51.230;-2.306;2022-12-07T22:53:21;-0.30;99.90
62916;DHT22;49010;51.230;-2.306;2022-12-07T22:57:03;-0.30;99.90
62916;DHT22;49010;51.230;-2.306;2022-12-07T23:00:45;-0.30;99.90
62916;DHT22;49010;51.230;-2.306;2022-12-07T23:04:27;-0.40;99.90
62916;DHT22;49010;51.230;-2.306;2022-12-07T23:08:09;-0.40;99.90
62916;DHT22;49010;51.230;-2.306;2022-12-07T23:11:51;-0.40;99.90
62916;DHT22;49010;51.230;-2.306;2022-12-07T23:15:51;-0.40;99.90
62916;DHT22;49010;51.230;-2.306;2022-12-07T23:19:34;-0.40;99.90
62916;DHT22;49010;51.230;-2.306;2022-12-07T23:23:16;-0.50;99.90
62916;DHT22;49010;51.230;-2.306;2022-12-07T23:26:58;-0.60;99.90
62916;DHT22;49010;51.230;-2.306;2022-12-07T23:30:40;-0.60;99.90
62916;DHT22;49010;51.230;-2.306;2022-12-07T23:34:21;-0.60;99.90
62916;DHT22;49010;51.230;-2.306;2022-12-07T23:38:03;-0.70;99.90
62916;DHT22;49010;51.230;-2.306;2022-12-07T23:41:45;-0.70;99.90
62916;DHT22;49010;51.230;-2.306;2022-12-07T23:45:27;-0.70;99.90
62916;DHT22;49010;51.230;-2.306;2022-12-07T23:49:10;-0.80;99.90
62916;DHT22;49010;51.230;-2.306;2022-12-07T23:52:53;-0.80;99.90
62916;DHT22;49010;51.230;-2.306;2022-12-07T23:56:35;-0.80;99.90
